Time;durP1;ratioP1;P1;durP2;ratioP2;P2;SDS_P1;SDS_P2;PMS_P1;PMS_P2;Temp;Humidity;BMP_temperature;BMP_pressure;BME280_temperature;BME280_humidity;BME280_pressure;Samples;Min_cycle;Max_cycle;Signal;HPM_P1;HPM_P2
2023/08/11 00:03:17;;;;;;;4.03;2.60;;;;;;;;;;10369867;28;20052;-61
2023/08/11 00:08:18;;;;;;;5.95;2.65;;;;;;;;;;10369882;28;20034;-60
2023/08/11 00:13:18;;;;;;;7.35;2.97;;;;;;;;;;10369572;28;20026;-60
2023/08/11 00:18:19;;;;;;;3.97;2.78;;;;;;;;;;10369269;28;20049;-60
2023/08/11 00:23:19;;;;;;;4.80;2.83;;;;;;;;;;10368951;28;20022;-60
2023/08/11 00:28:20;;;;;;;3.38;2.90;;;;;;;;;;10368810;28;20034;-60
2023/08/11 00:33:21;;;;;;;4.60;2.78;;;;;;;;;;10369303;28;20041;-61
2023/08/11 00:38:23;;;;;;;6.68;2.90;;;;;;;;;;10368128;28;20046;-60
2023/08/11 00:43:24;;;;;;;2.72;2.45;;;;;;;;;;10368784;28;20029;-60
2023/08/11 00:48:24;;;;;;;3.95;2.72;;;;;;;;;;10368162;28;20393;-61
2023/08/11 00:53:25;;;;;;;5.57;3.40;;;;;;;;;;10368204;28;20400;-61
2023/08/11 00:58:28;;;;;;;3.47;2.47;;;;;;;;;;10368312;28;20234;-60
2023/08/11 01:03:28;;;;;;;5.70;2.80;;;;;;;;;;10366938;28;20496;-59
2023/08/11 01:08:48;;;;;;;6.53;2.88;;;;;;;;;;10367955;28;20033;-60
2023/08/11 01:14:05;;;;;;;5.38;2.67;;;;;;;;;;10367503;28;20573;-60
2023/08/11 01:19:08;;;;;;;6.88;2.92;;;;;;;;;;10366310;28;20370;-61
2023/08/11 01:24:10;;;;;;;3.72;2.90;;;;;;;;;;10367722;28;20030;-60
2023/08/11 01:29:11;;;;;;;3.80;2.90;;;;;;;;;;10372244;28;20034;-61
2023/08/11 01:34:11;;;;;;;3.35;3.00;;;;;;;;;;10375332;28;20041;-61
2023/08/11 01:39:13;;;;;;;4.55;2.88;;;;;;;;;;10375184;28;20060;-61
2023/08/11 01:44:13;;;;;;;3.70;3.03;;;;;;;;;;10375569;28;20037;-61
2023/08/11 01:49:15;;;;;;;4.82;2.65;;;;;;;;;;10374204;28;20034;-61
2023/08/11 01:54:15;;;;;;;6.88;3.03;;;;;;;;;;10374122;28;20030;-61
2023/08/11 01:59:16;;;;;;;3.47;2.83;;;;;;;;;;10374914;28;20034;-61
2023/08/11 02:04:17;;;;;;;4.35;2.80;;;;;;;;;;10374051;28;20026;-61
2023/08/11 02:09:18;;;;;;;3.55;2.67;;;;;;;;;;10374113;28;20432;-61
2023/08/11 02:14:19;;;;;;;4.05;2.85;;;;;;;;;;10374337;28;20068;-62
2023/08/11 02:19:19;;;;;;;4.55;2.78;;;;;;;;;;10373943;28;20033;-59
2023/08/11 02:24:20;;;;;;;6.03;2.70;;;;;;;;;;10373849;28;20068;-58
2023/08/11 02:29:20;;;;;;;5.68;3.20;;;;;;;;;;10373713;28;20026;-59
2023/08/11 02:34:21;;;;;;;4.20;2.42;;;;;;;;;;10373361;28;20034;-60
2023/08/11 02:39:22;;;;;;;5.35;2.67;;;;;;;;;;10371950;28;20054;-60
2023/08/11 02:44:22;;;;;;;5.55;2.75;;;;;;;;;;10372598;28;20092;-59
2023/08/11 02:49:23;;;;;;;3.33;2.80;;;;;;;;;;10373045;28;20030;-60
2023/08/11 02:54:23;;;;;;;4.13;2.85;;;;;;;;;;10372533;28;20436;-59
2023/08/11 02:59:24;;;;;;;3.85;2.80;;;;;;;;;;10372675;28;20049;-59
2023/08/11 03:04:24;;;;;;;4.40;2.55;;;;;;;;;;10372583;28;20026;-60
2023/08/11 03:09:25;;;;;;;3.85;2.35;;;;;;;;;;10371965;28;20030;-60
2023/08/11 03:14:26;;;;;;;2.97;2.60;;;;;;;;;;10372501;28;20092;-59
2023/08/11 03:19:27;;;;;;;2.70;2.28;;;;;;;;;;10372142;28;20045;-59
2023/08/11 03:24:27;;;;;;;3.35;2.63;;;;;;;;;;10371562;28;20125;-60
2023/08/11 03:29:28;;;;;;;2.65;2.45;;;;;;;;;;10371441;28;20026;-59
2023/08/11 03:34:28;;;;;;;3.30;2.70;;;;;;;;;;10371086;28;20026;-59
2023/08/11 03:39:29;;;;;;;3.58;2.70;;;;;;;;;;10371690;28;20115;-59
2023/08/11 03:44:29;;;;;;;6.85;2.72;;;;;;;;;;10370932;28;20029;-59
2023/08/11 03:49:31;;;;;;;5.25;2.97;;;;;;;;;;10369923;28;20030;-59
2023/08/11 03:54:32;;;;;;;4.53;2.72;;;;;;;;;;10370187;28;20029;-59
2023/08/11 03:59:33;;;;;;;4.20;3.22;;;;;;;;;;10370256;28;20029;-60
2023/08/11 04:04:33;;;;;;;9.95;2.85;;;;;;;;;;10369935;28;20045;-59
2023/08/11 04:09:34;;;;;;;4.70;3.22;;;;;;;;;;10370002;28;20412;-59
2023/08/11 04:14:35;;;;;;;4.55;2.58;;;;;;;;;;10370641;28;20494;-59
2023/08/11 04:19:35;;;;;;;4.18;3.13;;;;;;;;;;10369975;28;20029;-60
2023/08/11 04:24:36;;;;;;;3.97;3.17;;;;;;;;;;10369330;28;20025;-59
2023/08/11 04:29:37;;;;;;;6.32;2.95;;;;;;;;;;10369285;28;20026;-60
2023/08/11 04:34:38;;;;;;;3.38;2.72;;;;;;;;;;10369450;28;20025;-59
2023/08/11 04:39:39;;;;;;;7.50;3.03;;;;;;;;;;10368783;28;20057;-59
2023/08/11 04:44:39;;;;;;;5.35;3.50;;;;;;;;;;10368693;28;20059;-60
2023/08/11 04:49:41;;;;;;;2.90;2.60;;;;;;;;;;10368664;28;20080;-60
2023/08/11 04:54:42;;;;;;;2.58;2.10;;;;;;;;;;10368849;28;20040;-60
2023/08/11 04:59:43;;;;;;;5.15;2.38;;;;;;;;;;10368328;28;20048;-61
2023/08/11 05:04:43;;;;;;;7.65;2.67;;;;;;;;;;10366688;28;20025;-61
2023/08/11 05:09:44;;;;;;;6.32;2.50;;;;;;;;;;10368634;28;20026;-61
2023/08/11 05:14:44;;;;;;;2.53;2.00;;;;;;;;;;10368353;28;20485;-62
2023/08/11 05:19:45;;;;;;;3.63;2.35;;;;;;;;;;10367935;28;20366;-61
2023/08/11 05:24:46;;;;;;;2.70;2.30;;;;;;;;;;10368241;28;20026;-61
2023/08/11 05:29:48;;;;;;;5.38;2.25;;;;;;;;;;10367655;28;20053;-61
2023/08/11 05:34:48;;;;;;;2.63;1.95;;;;;;;;;;10368038;28;20613;-62
2023/08/11 05:39:49;;;;;;;4.82;2.13;;;;;;;;;;10367343;28;20050;-61
2023/08/11 05:44:49;;;;;;;3.80;2.42;;;;;;;;;;10367241;28;20034;-59
2023/08/11 05:49:51;;;;;;;6.68;2.83;;;;;;;;;;10367271;28;20071;-62
2023/08/11 05:54:52;;;;;;;2.13;1.83;;;;;;;;;;10382214;28;20091;-62
2023/08/11 05:59:52;;;;;;;3.28;2.10;;;;;;;;;;10367470;28;20030;-61
2023/08/11 06:04:53;;;;;;;7.05;2.30;;;;;;;;;;10367665;28;20033;-61
2023/08/11 06:09:54;;;;;;;3.75;2.10;;;;;;;;;;10366941;28;20030;-62
2023/08/11 06:14:54;;;;;;;5.75;1.92;;;;;;;;;;10370789;28;20084;-62
2023/08/11 06:19:57;;;;;;;8.20;2.17;;;;;;;;;;10373972;28;20417;-59
2023/08/11 06:24:58;;;;;;;2.78;2.05;;;;;;;;;;10374394;28;20025;-59
2023/08/11 06:29:59;;;;;;;4.47;2.60;;;;;;;;;;10374022;28;20022;-57
2023/08/11 06:34:59;;;;;;;10.55;2.38;;;;;;;;;;10372148;28;20041;-59
2023/08/11 06:40:00;;;;;;;2.58;1.80;;;;;;;;;;10372573;28;20033;-59
2023/08/11 06:45:00;;;;;;;10.25;2.25;;;;;;;;;;10373021;28;20032;-59
2023/08/11 06:50:03;;;;;;;9.23;2.17;;;;;;;;;;10373573;28;20026;-58
2023/08/11 06:55:05;;;;;;;5.55;2.28;;;;;;;;;;10373300;28;20181;-59
2023/08/11 07:00:07;;;;;;;4.88;2.42;;;;;;;;;;10373253;28;20133;-59
2023/08/11 07:05:08;;;;;;;4.68;2.30;;;;;;;;;;10373065;28;20454;-59
2023/08/11 07:10:09;;;;;;;3.22;2.05;;;;;;;;;;10372534;28;20045;-59
2023/08/11 07:15:10;;;;;;;4.70;2.20;;;;;;;;;;10371901;28;20026;-58
2023/08/11 07:20:11;;;;;;;3.90;2.10;;;;;;;;;;10372547;28;20029;-58
2023/08/11 07:25:12;;;;;;;4.25;2.20;;;;;;;;;;10371244;28;20033;-58
2023/08/11 07:30:12;;;;;;;4.32;2.15;;;;;;;;;;10372061;28;20038;-58
2023/08/11 07:35:13;;;;;;;3.30;2.20;;;;;;;;;;10371288;28;20076;-58
2023/08/11 07:40:14;;;;;;;2.92;2.22;;;;;;;;;;10371730;28;20041;-58
2023/08/11 07:45:14;;;;;;;3.58;2.20;;;;;;;;;;10372025;28;20581;-59
2023/08/11 07:50:15;;;;;;;5.15;2.13;;;;;;;;;;10370717;28;20172;-58
2023/08/11 07:55:15;;;;;;;5.13;2.40;;;;;;;;;;10370508;28;20018;-59
2023/08/11 08:00:16;;;;;;;5.22;2.28;;;;;;;;;;10370376;28;20036;-58
2023/08/11 08:05:17;;;;;;;2.40;1.95;;;;;;;;;;10370261;28;20037;-59
2023/08/11 08:10:20;;;;;;;2.00;1.88;;;;;;;;;;10370606;28;20088;-59
2023/08/11 08:15:20;;;;;;;4.22;2.13;;;;;;;;;;10369774;28;20117;-59
2023/08/11 08:20:21;;;;;;;5.18;2.20;;;;;;;;;;10370359;28;20030;-59
2023/08/11 08:25:23;;;;;;;3.28;1.70;;;;;;;;;;10368724;28;20030;-59
2023/08/11 08:30:23;;;;;;;2.20;2.00;;;;;;;;;;10369296;28;20037;-59
2023/08/11 08:35:24;;;;;;;4.90;2.20;;;;;;;;;;10368663;28;20100;-59
2023/08/11 08:40:27;;;;;;;2.47;2.28;;;;;;;;;;10368924;28;20030;-59
2023/08/11 08:45:28;;;;;;;3.63;2.25;;;;;;;;;;10368636;28;20037;-59
2023/08/11 08:50:29;;;;;;;3.70;2.13;;;;;;;;;;10367904;28;20377;-59
2023/08/11 08:55:30;;;;;;;2.47;1.77;;;;;;;;;;10367171;28;20036;-59
2023/08/11 09:00:33;;;;;;;2.30;2.03;;;;;;;;;;10368325;28;20087;-59
2023/08/11 09:05:34;;;;;;;4.50;2.35;;;;;;;;;;10368555;28;20072;-59
2023/08/11 09:10:36;;;;;;;4.13;2.25;;;;;;;;;;10368115;28;20516;-59
2023/08/11 09:15:37;;;;;;;3.25;1.92;;;;;;;;;;10367275;28;20034;-59
2023/08/11 09:20:37;;;;;;;2.42;2.00;;;;;;;;;;10368084;28;20034;-59
2023/08/11 09:25:38;;;;;;;4.03;2.22;;;;;;;;;;10367622;28;20034;-59
2023/08/11 09:30:40;;;;;;;5.72;2.22;;;;;;;;;;10368640;28;20026;-58
2023/08/11 09:35:41;;;;;;;5.80;2.25;;;;;;;;;;10367287;28;20058;-59
2023/08/11 09:40:41;;;;;;;2.72;2.03;;;;;;;;;;10367396;28;20538;-59
2023/08/11 09:45:42;;;;;;;2.67;1.88;;;;;;;;;;10367308;28;20026;-59
2023/08/11 09:50:44;;;;;;;3.63;2.10;;;;;;;;;;10372428;28;20022;-59
2023/08/11 09:55:47;;;;;;;2.00;1.80;;;;;;;;;;10374263;28;20373;-58
2023/08/11 10:00:49;;;;;;;2.03;1.77;;;;;;;;;;10373938;28;20559;-59
2023/08/11 10:05:53;;;;;;;3.00;2.25;;;;;;;;;;10373486;28;20281;-59
2023/08/11 10:10:54;;;;;;;4.47;2.10;;;;;;;;;;10374747;28;20025;-58
2023/08/11 10:15:55;;;;;;;2.55;1.88;;;;;;;;;;10374786;28;20033;-59
2023/08/11 10:20:56;;;;;;;7.60;2.20;;;;;;;;;;10373596;28;20022;-59
2023/08/11 10:25:57;;;;;;;2.88;1.90;;;;;;;;;;10374156;28;20366;-58
2023/08/11 10:30:58;;;;;;;4.38;1.98;;;;;;;;;;10372680;28;20036;-59
2023/08/11 10:36:01;;;;;;;4.20;1.88;;;;;;;;;;10374011;28;20050;-59
2023/08/11 10:41:09;;;;;;;2.75;2.15;;;;;;;;;;10373602;28;20026;-59
2023/08/11 10:46:31;;;;;;;3.50;2.45;;;;;;;;;;10373443;28;20272;-59
2023/08/11 10:51:36;;;;;;;2.40;1.75;;;;;;;;;;10372481;28;20030;-58
2023/08/11 10:56:41;;;;;;;1.92;1.73;;;;;;;;;;10372686;28;20030;-59
2023/08/11 11:01:47;;;;;;;3.53;2.03;;;;;;;;;;10372691;28;20026;-58
2023/08/11 11:06:53;;;;;;;2.38;2.17;;;;;;;;;;10372543;28;20034;-60
2023/08/11 11:11:54;;;;;;;2.75;1.90;;;;;;;;;;10372542;28;20117;-59
2023/08/11 11:16:58;;;;;;;2.50;2.20;;;;;;;;;;10371017;28;20377;-59
2023/08/11 11:21:59;;;;;;;3.55;2.30;;;;;;;;;;10372448;28;20026;-59
2023/08/11 11:27:00;;;;;;;2.80;1.92;;;;;;;;;;10372031;28;20030;-59
2023/08/11 11:32:06;;;;;;;2.50;2.30;;;;;;;;;;10370171;28;20030;-59
2023/08/11 11:37:07;;;;;;;2.75;1.95;;;;;;;;;;10369082;28;20378;-58
2023/08/11 11:42:10;;;;;;;2.53;1.85;;;;;;;;;;10369643;28;20030;-59
2023/08/11 11:47:12;;;;;;;2.17;1.90;;;;;;;;;;10370601;28;20021;-59
2023/08/11 11:52:12;;;;;;;2.50;1.80;;;;;;;;;;10370918;28;20022;-58
2023/08/11 11:57:15;;;;;;;2.33;1.77;;;;;;;;;;10370423;28;20056;-59
2023/08/11 12:02:17;;;;;;;3.90;2.05;;;;;;;;;;10370481;28;20022;-58
2023/08/11 12:07:36;;;;;;;3.45;2.20;;;;;;;;;;10370622;28;20030;-59
2023/08/11 12:12:37;;;;;;;2.45;2.25;;;;;;;;;;10369166;28;20236;-59
2023/08/11 12:17:37;;;;;;;2.78;2.10;;;;;;;;;;10369354;28;20339;-59
2023/08/11 12:22:38;;;;;;;2.30;2.10;;;;;;;;;;10369855;28;20063;-59
2023/08/11 12:27:40;;;;;;;2.50;2.00;;;;;;;;;;10369749;28;20022;-59
2023/08/11 12:32:41;;;;;;;2.22;1.90;;;;;;;;;;10369573;28;20037;-59
2023/08/11 12:37:41;;;;;;;2.55;2.10;;;;;;;;;;10367320;28;20236;-60
2023/08/11 12:42:42;;;;;;;2.20;1.95;;;;;;;;;;10367018;28;20224;-59
2023/08/11 12:47:43;;;;;;;3.20;2.13;;;;;;;;;;10366841;28;20030;-59
2023/08/11 12:52:43;;;;;;;4.03;2.00;;;;;;;;;;10367008;28;20026;-59
2023/08/11 12:57:44;;;;;;;2.75;2.05;;;;;;;;;;10366939;28;20049;-60
2023/08/11 13:02:47;;;;;;;2.75;2.38;;;;;;;;;;10366199;28;20033;-59
2023/08/11 13:07:48;;;;;;;7.68;2.00;;;;;;;;;;10367018;28;20044;-59
2023/08/11 13:12:49;;;;;;;7.45;1.98;;;;;;;;;;10365988;28;20021;-60
2023/08/11 13:17:49;;;;;;;3.53;2.55;;;;;;;;;;10366157;28;20064;-59
2023/08/11 13:22:50;;;;;;;3.20;2.30;;;;;;;;;;10365281;28;20033;-59
2023/08/11 13:27:50;;;;;;;3.90;2.20;;;;;;;;;;10366539;28;20026;-59
2023/08/11 13:32:51;;;;;;;2.53;1.98;;;;;;;;;;10366557;28;20026;-59
2023/08/11 13:37:52;;;;;;;4.78;1.52;;;;;;;;;;10320152;28;1346921;-59
2023/08/11 13:42:52;;;;;;;5.97;1.90;;;;;;;;;;10367610;28;20057;-59
2023/08/11 13:47:53;;;;;;;3.60;2.33;;;;;;;;;;10367250;28;20033;-59
2023/08/11 13:52:54;;;;;;;3.13;2.17;;;;;;;;;;10367800;28;20030;-59
2023/08/11 13:57:55;;;;;;;2.85;2.03;;;;;;;;;;10367296;28;20030;-59
2023/08/11 14:02:56;;;;;;;4.80;2.42;;;;;;;;;;10366799;28;20026;-59
2023/08/11 14:07:57;;;;;;;7.63;2.53;;;;;;;;;;10367254;28;20107;-59
2023/08/11 14:12:57;;;;;;;12.38;2.45;;;;;;;;;;10367544;28;20026;-59
2023/08/11 14:17:58;;;;;;;7.47;2.90;;;;;;;;;;10366630;28;20030;-60
2023/08/11 14:22:59;;;;;;;10.95;2.80;;;;;;;;;;10367416;28;20084;-59
2023/08/11 14:28:00;;;;;;;5.05;3.00;;;;;;;;;;10366712;28;20030;-59
2023/08/11 14:33:00;;;;;;;5.95;3.25;;;;;;;;;;10366542;28;20041;-59
2023/08/11 14:38:01;;;;;;;13.73;3.05;;;;;;;;;;10372695;28;20053;-59
2023/08/11 14:43:01;;;;;;;15.88;2.92;;;;;;;;;;10373001;28;20042;-59
2023/08/11 14:48:03;;;;;;;13.95;3.28;;;;;;;;;;10373195;28;20504;-59
2023/08/11 14:53:03;;;;;;;6.32;2.83;;;;;;;;;;10372175;28;20026;-59
2023/08/11 14:58:04;;;;;;;9.85;3.50;;;;;;;;;;10373056;28;20118;-59
2023/08/11 15:03:06;;;;;;;13.20;3.35;;;;;;;;;;10373220;28;20111;-59
2023/08/11 15:08:07;;;;;;;6.57;3.25;;;;;;;;;;10372606;28;20028;-59
2023/08/11 15:13:07;;;;;;;13.55;3.33;;;;;;;;;;10372393;28;20544;-59
2023/08/11 15:18:08;;;;;;;10.15;3.00;;;;;;;;;;10371989;28;20021;-59
2023/08/11 15:23:09;;;;;;;19.15;4.40;;;;;;;;;;10372469;28;20025;-59
2023/08/11 15:28:09;;;;;;;13.40;3.30;;;;;;;;;;10372341;28;20022;-59
2023/08/11 15:33:10;;;;;;;12.13;3.63;;;;;;;;;;10372002;28;20037;-59
2023/08/11 15:38:10;;;;;;;9.63;3.20;;;;;;;;;;10370650;28;20106;-59
2023/08/11 15:43:11;;;;;;;9.45;2.95;;;;;;;;;;10370530;28;20030;-60
2023/08/11 15:48:11;;;;;;;10.90;3.47;;;;;;;;;;10369787;28;20041;-59
2023/08/11 15:53:12;;;;;;;9.32;2.70;;;;;;;;;;10370580;28;20030;-59
2023/08/11 15:58:13;;;;;;;13.60;3.60;;;;;;;;;;10370015;28;20433;-59
2023/08/11 16:03:14;;;;;;;8.27;3.20;;;;;;;;;;10370568;28;20034;-59
2023/08/11 16:08:15;;;;;;;10.68;2.83;;;;;;;;;;10370448;28;20026;-59
2023/08/11 16:13:15;;;;;;;12.10;2.85;;;;;;;;;;10370235;28;20449;-59
2023/08/11 16:18:16;;;;;;;12.18;3.50;;;;;;;;;;10369980;28;20029;-59
2023/08/11 16:23:17;;;;;;;8.85;3.38;;;;;;;;;;10369496;28;20119;-59
2023/08/11 16:28:17;;;;;;;11.95;3.25;;;;;;;;;;10368905;28;20121;-59
2023/08/11 16:33:18;;;;;;;9.98;3.10;;;;;;;;;;10369389;28;20030;-59
2023/08/11 16:38:19;;;;;;;10.98;3.15;;;;;;;;;;10384029;28;20100;-59
2023/08/11 16:43:19;;;;;;;9.93;2.80;;;;;;;;;;10369289;28;20033;-59
2023/08/11 16:48:20;;;;;;;13.18;3.53;;;;;;;;;;10369233;28;20034;-59
2023/08/11 16:53:20;;;;;;;8.48;3.00;;;;;;;;;;10368600;28;20026;-60
2023/08/11 16:58:21;;;;;;;5.72;3.00;;;;;;;;;;10368476;28;20389;-59
2023/08/11 17:03:23;;;;;;;8.50;2.88;;;;;;;;;;10368311;28;20057;-59
2023/08/11 17:08:24;;;;;;;6.85;2.72;;;;;;;;;;10368370;28;20018;-60
2023/08/11 17:13:27;;;;;;;6.15;2.78;;;;;;;;;;10368135;28;20026;-60
2023/08/11 17:18:28;;;;;;;6.28;3.15;;;;;;;;;;10368212;28;20022;-58
2023/08/11 17:23:28;;;;;;;3.20;2.70;;;;;;;;;;10367299;28;20030;-59
2023/08/11 17:28:29;;;;;;;5.55;2.40;;;;;;;;;;10368172;28;20088;-59
2023/08/11 17:33:30;;;;;;;5.70;2.90;;;;;;;;;;10367969;28;20034;-58
2023/08/11 17:38:30;;;;;;;6.80;2.70;;;;;;;;;;10367442;28;20177;-59
2023/08/11 17:43:31;;;;;;;3.92;2.50;;;;;;;;;;10368015;28;20185;-58
2023/08/11 17:48:32;;;;;;;4.35;2.72;;;;;;;;;;10367922;28;20046;-58
2023/08/11 17:53:32;;;;;;;6.13;2.80;;;;;;;;;;10382461;28;20037;-59
2023/08/11 17:58:33;;;;;;;3.42;2.38;;;;;;;;;;10367769;28;20041;-58
2023/08/11 18:03:33;;;;;;;9.52;2.30;;;;;;;;;;10367046;28;20292;-59
2023/08/11 18:08:34;;;;;;;3.60;2.45;;;;;;;;;;10367639;28;20086;-58
2023/08/11 18:13:35;;;;;;;5.78;2.42;;;;;;;;;;10374980;28;20084;-59
2023/08/11 18:18:36;;;;;;;2.38;2.17;;;;;;;;;;10375266;28;20033;-59
2023/08/11 18:23:36;;;;;;;3.92;2.53;;;;;;;;;;10374378;28;20116;-60
2023/08/11 18:28:37;;;;;;;6.72;2.67;;;;;;;;;;10374077;28;20059;-61
2023/08/11 18:33:38;;;;;;;4.10;2.42;;;;;;;;;;10374548;28;20029;-59
2023/08/11 18:38:38;;;;;;;3.00;2.60;;;;;;;;;;10372369;28;20046;-59
2023/08/11 18:43:39;;;;;;;3.75;2.70;;;;;;;;;;10373366;28;20258;-60
2023/08/11 18:48:40;;;;;;;4.13;2.22;;;;;;;;;;10372597;28;20481;-59
2023/08/11 18:53:41;;;;;;;3.33;2.53;;;;;;;;;;10373004;28;20033;-60
2023/08/11 18:58:43;;;;;;;5.18;2.40;;;;;;;;;;10372746;28;20033;-59
2023/08/11 19:03:43;;;;;;;6.50;2.40;;;;;;;;;;10372241;28;20473;-62
2023/08/11 19:08:45;;;;;;;9.02;2.55;;;;;;;;;;10372485;28;20034;-64
2023/08/11 19:13:45;;;;;;;10.88;3.03;;;;;;;;;;10373012;28;20018;-63
2023/08/11 19:18:46;;;;;;;6.53;2.80;;;;;;;;;;10371925;28;20038;-66
2023/08/11 19:23:47;;;;;;;6.15;2.80;;;;;;;;;;10369998;28;20078;-65
2023/08/11 19:28:48;;;;;;;7.22;2.95;;;;;;;;;;10370629;28;20082;-64
2023/08/11 19:33:49;;;;;;;4.00;2.22;;;;;;;;;;10370622;28;20021;-65
2023/08/11 19:38:49;;;;;;;3.83;2.45;;;;;;;;;;10371378;28;20041;-65
2023/08/11 19:43:51;;;;;;;8.48;2.78;;;;;;;;;;10371383;28;20033;-62
2023/08/11 19:48:51;;;;;;;2.72;2.20;;;;;;;;;;10370883;28;20033;-62
2023/08/11 19:53:52;;;;;;;8.50;2.80;;;;;;;;;;10370807;28;20092;-65
2023/08/11 19:58:52;;;;;;;6.53;2.60;;;;;;;;;;10370577;28;20033;-66
2023/08/11 20:03:53;;;;;;;4.85;2.65;;;;;;;;;;10370053;28;20034;-62
2023/08/11 20:08:54;;;;;;;4.25;2.45;;;;;;;;;;10370339;28;20033;-57
2023/08/11 20:13:54;;;;;;;4.03;2.70;;;;;;;;;;10370276;28;20041;-58
2023/08/11 20:18:55;;;;;;;4.47;3.05;;;;;;;;;;10369950;28;20059;-62
2023/08/11 20:23:55;;;;;;;8.02;3.38;;;;;;;;;;10369840;28;20026;-63
2023/08/11 20:28:56;;;;;;;7.13;3.22;;;;;;;;;;10370134;28;20033;-66
2023/08/11 20:33:56;;;;;;;3.72;2.40;;;;;;;;;;10368760;28;20037;-61
2023/08/11 20:38:57;;;;;;;8.50;2.78;;;;;;;;;;10369008;28;20042;-62
2023/08/11 20:43:58;;;;;;;4.55;2.88;;;;;;;;;;10368944;28;20018;-61
2023/08/11 20:48:59;;;;;;;4.30;2.92;;;;;;;;;;10368901;28;20029;-60
2023/08/11 20:53:59;;;;;;;4.82;2.85;;;;;;;;;;10369303;28;20030;-58
2023/08/11 20:59:00;;;;;;;8.95;2.83;;;;;;;;;;10368912;28;20021;-62
2023/08/11 21:04:00;;;;;;;3.00;2.70;;;;;;;;;;10368843;28;20033;-64
2023/08/11 21:09:01;;;;;;;4.07;2.95;;;;;;;;;;10368363;28;20033;-60
2023/08/11 21:14:09;;;;;;;8.75;2.45;;;;;;;;;;10368692;28;20032;-63
2023/08/11 21:19:09;;;;;;;;;;;;;;;;;;10369094;28;20041;-64
2023/08/11 21:24:10;;;;;;;8.27;2.87;;;;;;;;;;10368509;28;19949;-66
2023/08/11 21:29:11;;;;;;;4.38;3.08;;;;;;;;;;10368013;28;20064;-65
2023/08/11 21:34:12;;;;;;;4.43;2.80;;;;;;;;;;10368198;28;20026;-64
2023/08/11 21:39:12;;;;;;;6.20;2.90;;;;;;;;;;10366932;28;20505;-60
2023/08/11 21:44:15;;;;;;;4.90;3.20;;;;;;;;;;10367710;28;20362;-63
2023/08/11 21:49:16;;;;;;;8.88;4.10;;;;;;;;;;10375520;28;20385;-59
2023/08/11 21:54:16;;;;;;;6.82;3.88;;;;;;;;;;10375522;28;20030;-66
2023/08/11 21:59:17;;;;;;;4.53;3.20;;;;;;;;;;10375298;28;20034;-62
2023/08/11 22:04:18;;;;;;;6.07;3.33;;;;;;;;;;10373527;28;20030;-63
2023/08/11 22:09:18;;;;;;;7.50;3.08;;;;;;;;;;10373553;28;20041;-62
2023/08/11 22:14:20;;;;;;;4.78;3.50;;;;;;;;;;10373846;28;20041;-64
2023/08/11 22:19:21;;;;;;;8.10;4.70;;;;;;;;;;10373911;28;20172;-63
2023/08/11 22:24:22;;;;;;;8.30;4.40;;;;;;;;;;10370491;28;20022;-64
2023/08/11 22:29:23;;;;;;;9.82;4.20;;;;;;;;;;10373348;28;20033;-63
2023/08/11 22:34:23;;;;;;;7.47;3.70;;;;;;;;;;10373862;28;20034;-64
2023/08/11 22:39:24;;;;;;;5.10;3.60;;;;;;;;;;10373142;28;20045;-64
2023/08/11 22:44:24;;;;;;;6.40;4.00;;;;;;;;;;10372664;28;20022;-65
2023/08/11 22:49:25;;;;;;;9.63;3.40;;;;;;;;;;10372725;28;20166;-63
2023/08/11 22:54:26;;;;;;;7.15;3.60;;;;;;;;;;10373132;28;20034;-62
2023/08/11 22:59:26;;;;;;;5.25;3.63;;;;;;;;;;10373217;28;20044;-60
2023/08/11 23:04:27;;;;;;;4.95;3.47;;;;;;;;;;10372899;28;20026;-60
2023/08/11 23:09:28;;;;;;;5.57;3.53;;;;;;;;;;10372754;28;20037;-59
2023/08/11 23:14:30;;;;;;;5.93;3.25;;;;;;;;;;10372800;28;20092;-62
2023/08/11 23:19:30;;;;;;;12.35;4.20;;;;;;;;;;10372458;28;20076;-54
2023/08/11 23:24:31;;;;;;;6.82;4.03;;;;;;;;;;10372362;28;20075;-59
2023/08/11 23:29:37;;;;;;;7.45;4.20;;;;;;;;;;10372179;28;20037;-57
2023/08/11 23:34:38;;;;;;;4.93;4.28;;;;;;;;;;10371588;28;20034;-61
2023/08/11 23:39:38;;;;;;;8.85;4.90;;;;;;;;;;10371282;28;20096;-60
2023/08/11 23:44:39;;;;;;;6.78;4.60;;;;;;;;;;10371449;28;20022;-67
2023/08/11 23:49:41;;;;;;;8.43;3.90;;;;;;;;;;10369771;28;20119;-57
2023/08/11 23:54:51;;;;;;;6.22;4.32;;;;;;;;;;10370667;28;20393;-58
2023/08/11 23:59:51;;;;;;;5.95;4.18;;;;;;;;;;10371043;28;20038;-58
